createdAt,value
2019-04-20T00:00:37.103Z,32.97
2019-04-20T00:03:09.693Z,48.73
2019-04-20T00:05:43.427Z,51.03
2019-04-20T00:08:23.389Z,37.53
2019-04-20T00:10:57.027Z,45.30
2019-04-20T00:13:37.872Z,44.10
2019-04-20T00:16:00.014Z,47.47
2019-04-20T00:18:41.092Z,49.77
2019-04-20T00:21:24.802Z,39.27
2019-04-20T00:24:01.031Z,40.90
2019-04-20T00:27:06.474Z,41.03
2019-04-20T00:29:24.893Z,38.87
2019-04-20T00:31:52.329Z,44.03
2019-04-20T00:34:24.756Z,42.70
2019-04-20T00:36:51.959Z,42.37
2019-04-20T00:39:25.864Z,38.97
2019-04-20T00:42:03.426Z,42.50
2019-04-20T00:44:37.358Z,34.80
2019-04-20T00:47:16.912Z,42.90
2019-04-20T00:49:52.754Z,34.50
2019-04-20T00:52:47.187Z,35.23
2019-04-20T00:54:49.950Z,31.60
2019-04-20T00:57:34.696Z,35.50
2019-04-20T01:00:17.613Z,38.90
2019-04-20T01:02:43.362Z,37.50
2019-04-20T01:05:43.266Z,29.80
2019-04-20T01:08:00.587Z,29.20
2019-04-20T01:10:39.500Z,30.67
2019-04-20T01:13:15.070Z,29.70
2019-04-20T01:15:51.595Z,29.00
2019-04-20T01:18:17.580Z,36.20
2019-04-20T01:20:51.389Z,25.80
2019-04-20T01:23:34.075Z,29.70
2019-04-20T01:26:05.507Z,31.70
2019-04-20T01:28:46.815Z,28.83
2019-04-20T01:31:18.448Z,26.80
2019-04-20T01:37:00.972Z,28.13
2019-04-20T01:39:58.615Z,32.47
2019-04-20T01:42:38.291Z,33.67
2019-04-20T01:45:30.797Z,33.83
2019-04-20T01:48:01.233Z,32.73
2019-04-20T01:54:06.292Z,35.83
2019-04-20T01:56:51.982Z,32.73
2019-04-20T01:59:51.756Z,33.77
2019-04-20T02:02:26.072Z,39.10
2019-04-20T02:05:11.465Z,29.93
2019-04-20T02:07:55.412Z,50.43
2019-04-20T02:10:39.526Z,35.00
2019-04-20T02:13:19.865Z,42.30
2019-04-20T02:15:56.365Z,41.97
2019-04-20T02:18:36.465Z,36.87
2019-04-20T02:21:19.647Z,43.80
2019-04-20T02:23:46.219Z,39.97
2019-04-20T02:26:11.108Z,45.77
2019-04-20T02:29:15.797Z,46.83
2019-04-20T02:39:51.404Z,32.27
2019-04-20T02:42:34.239Z,41.73
2019-04-20T02:45:11.207Z,37.63
2019-04-20T02:47:41.289Z,54.43
2019-04-20T02:50:15.141Z,34.83
2019-04-20T02:52:51.033Z,30.50
2019-04-20T02:55:36.384Z,31.23
2019-04-20T03:00:25.111Z,24.20
2019-04-20T03:02:46.123Z,23.20
2019-04-20T03:05:21.625Z,24.50
2019-04-20T03:08:05.252Z,31.47
2019-04-20T03:10:46.352Z,36.80
2019-04-20T03:13:15.425Z,36.80
2019-04-20T03:15:51.886Z,44.17
2019-04-20T03:18:19.313Z,52.77
2019-04-20T03:21:00.818Z,61.50
2019-04-20T03:23:37.228Z,57.60
2019-04-20T03:26:19.059Z,47.73
2019-04-20T03:28:54.092Z,36.13
2019-04-20T03:31:59.583Z,36.00
2019-04-20T03:36:53.759Z,35.83
2019-04-20T03:39:18.084Z,35.13
2019-04-20T03:41:43.064Z,34.27
2019-04-20T03:44:15.649Z,38.00
2019-04-20T03:46:52.240Z,34.47
2019-04-20T03:49:42.302Z,37.67
2019-04-20T03:52:23.341Z,35.73
2019-04-20T03:55:16.435Z,46.00
2019-04-20T03:58:15.307Z,45.13
2019-04-20T04:00:59.924Z,54.00
2019-04-20T04:03:53.384Z,41.37
2019-04-20T04:06:17.781Z,30.80
2019-04-20T04:08:58.709Z,30.00
2019-04-20T04:11:35.119Z,30.60
2019-04-20T04:13:52.525Z,29.53
2019-04-20T04:16:34.172Z,24.80
2019-04-20T04:19:10.025Z,30.00
2019-04-20T04:21:48.946Z,31.57
2019-04-20T04:24:22.592Z,145.70
2019-04-20T04:27:00.765Z,42.80
2019-04-20T04:29:40.128Z,30.27
2019-04-20T04:32:20.665Z,31.20
2019-04-20T04:34:43.277Z,22.50
2019-04-20T04:37:20.363Z,33.87
2019-04-20T04:40:06.099Z,27.13
2019-04-20T04:42:36.627Z,25.70
2019-04-20T04:44:53.686Z,23.93
2019-04-20T04:47:19.835Z,34.40
2019-04-20T04:49:59.966Z,25.00
2019-04-20T04:52:36.030Z,33.07
2019-04-20T04:55:11.268Z,24.27
2019-04-20T04:57:36.691Z,31.43
2019-04-20T05:00:16.647Z,24.30
2019-04-20T05:02:50.633Z,25.33
2019-04-20T05:05:41.359Z,31.93
2019-04-20T05:08:08.823Z,31.50
2019-04-20T05:10:33.015Z,21.53
2019-04-20T05:13:07.135Z,26.70
2019-04-20T05:15:52.542Z,22.63
2019-04-20T05:18:41.788Z,22.23
2019-04-20T05:21:11.837Z,19.87
2019-04-20T05:23:37.522Z,46.83
2019-04-20T05:26:30.998Z,29.87
2019-04-20T05:28:59.098Z,21.90
2019-04-20T05:31:30.906Z,26.77
2019-04-20T05:34:20.571Z,22.87
2019-04-20T05:36:49.273Z,23.30
2019-04-20T05:39:35.137Z,24.07
2019-04-20T05:42:06.179Z,17.17
2019-04-20T05:44:42.747Z,23.27
2019-04-20T05:47:11.311Z,22.67
2019-04-20T05:49:46.797Z,27.60
2019-04-20T05:52:47.227Z,21.07
2019-04-20T05:54:56.238Z,17.90
2019-04-20T05:57:34.923Z,17.73
2019-04-20T06:00:08.336Z,20.97
2019-04-20T06:02:42.161Z,24.43
2019-04-20T06:05:20.924Z,19.20
2019-04-20T06:07:50.595Z,18.83
2019-04-20T06:10:27.395Z,15.20
2019-04-20T06:12:57.843Z,15.90
2019-04-20T06:15:30.878Z,17.77
2019-04-20T06:18:06.623Z,16.77
2019-04-20T06:20:47.844Z,18.77
2019-04-20T06:23:47.487Z,17.80
2019-04-20T06:26:33.538Z,20.83
2019-04-20T06:28:43.874Z,15.40
2019-04-20T06:31:28.212Z,13.47
2019-04-20T06:42:19.339Z,25.57
2019-04-20T06:44:41.191Z,15.90
2019-04-20T06:47:30.686Z,13.20
2019-04-20T06:49:42.463Z,17.17
2019-04-20T06:55:35.008Z,22.97
2019-04-20T06:57:45.069Z,15.70
2019-04-20T07:00:30.803Z,18.80
2019-04-20T07:02:56.409Z,19.87
2019-04-20T07:05:28.547Z,49.20
2019-04-20T07:08:16.670Z,17.30
2019-04-20T07:10:39.377Z,13.67
2019-04-20T07:13:07.718Z,26.37
2019-04-20T07:15:40.186Z,11.30
2019-04-20T07:18:23.371Z,18.23
2019-04-20T07:21:16.096Z,12.37
2019-04-20T07:23:32.745Z,12.07
2019-04-20T07:26:12.737Z,12.00
2019-04-20T07:28:47.533Z,11.33
2019-04-20T07:31:14.128Z,8.80
2019-04-20T07:33:52.171Z,8.90
2019-04-20T07:36:24.441Z,7.73
2019-04-20T07:39:04.210Z,7.03
2019-04-20T07:41:43.339Z,7.73
2019-04-20T07:44:10.205Z,8.67
2019-04-20T07:46:57.906Z,9.10
2019-04-20T07:49:18.138Z,8.33
2019-04-20T07:51:35.573Z,7.20
2019-04-20T07:54:28.493Z,12.73
2019-04-20T07:56:58.711Z,10.80
2019-04-20T07:59:27.268Z,6.87
2019-04-20T08:02:16.236Z,7.73
2019-04-20T08:04:49.974Z,13.53
2019-04-20T08:07:07.402Z,7.40
2019-04-20T08:09:46.511Z,6.83
2019-04-20T08:12:49.906Z,7.43
2019-04-20T08:15:24.007Z,11.17
2019-04-20T08:17:58.594Z,6.13
2019-04-20T08:20:25.812Z,12.97
2019-04-20T08:23:12.329Z,8.93
2019-04-20T08:25:30.583Z,15.77
2019-04-20T08:27:57.088Z,6.13
2019-04-20T08:31:06.576Z,12.73
2019-04-20T08:33:50.286Z,9.63
2019-04-20T08:36:22.863Z,11.97
2019-04-20T08:41:20.573Z,14.60
2019-04-20T08:44:09.842Z,10.30
2019-04-20T08:46:47.004Z,15.30
2019-04-20T08:49:13.208Z,10.87
2019-04-20T08:51:49.780Z,18.37
2019-04-20T08:54:20.102Z,9.20
2019-04-20T08:56:43.345Z,8.83
2019-04-20T08:59:09.498Z,8.70
2019-04-20T09:01:44.493Z,8.83
2019-04-20T09:04:24.232Z,11.20
2019-04-20T09:07:04.009Z,7.27
2019-04-20T09:09:49.502Z,11.10
2019-04-20T09:12:15.860Z,5.90
2019-04-20T09:14:38.488Z,5.42
2019-04-20T09:17:21.211Z,6.80
2019-04-20T09:19:56.904Z,6.60
2019-04-20T09:22:40.960Z,4.37
2019-04-20T09:27:52.383Z,6.55
2019-04-20T09:30:33.153Z,3.77
2019-04-20T09:33:35.999Z,3.15
2019-04-20T09:36:02.352Z,5.95
2019-04-20T09:38:40.822Z,3.40
2019-04-20T09:41:27.560Z,8.43
2019-04-20T09:43:36.867Z,6.65
2019-04-20T09:46:10.272Z,2.92
2019-04-20T09:48:53.593Z,8.70
2019-04-20T09:51:37.849Z,5.80
2019-04-20T09:54:06.465Z,10.98
2019-04-20T09:56:39.500Z,9.13
2019-04-20T09:59:25.137Z,5.62
2019-04-20T10:01:43.674Z,6.97
2019-04-20T10:04:13.011Z,7.30
2019-04-20T10:06:47.557Z,2.77
2019-04-20T10:09:27.990Z,6.62
2019-04-20T10:11:55.404Z,6.85
2019-04-20T10:14:28.912Z,10.58
2019-04-20T10:17:02.193Z,3.15
2019-04-20T10:19:39.121Z,6.03
2019-04-20T10:22:11.125Z,7.65
2019-04-20T10:24:45.937Z,4.05
2019-04-20T10:27:18.746Z,3.75
2019-04-20T10:29:51.615Z,5.58
2019-04-20T10:32:33.080Z,5.25
2019-04-20T10:35:00.831Z,4.45
2019-04-20T10:37:35.484Z,8.93
2019-04-20T10:40:08.689Z,3.27
2019-04-20T10:42:41.858Z,3.33
2019-04-20T10:45:15.042Z,6.20
2019-04-20T10:47:47.795Z,3.85
2019-04-20T10:50:20.976Z,9.28
2019-04-20T10:52:54.043Z,9.73
2019-04-20T10:55:27.266Z,4.60
2019-04-20T10:58:00.130Z,13.25
2019-04-20T11:00:45.914Z,16.23
2019-04-20T11:03:19.739Z,3.33
2019-04-20T11:05:53.043Z,3.50
2019-04-20T11:08:26.578Z,6.40
2019-04-20T11:11:09.282Z,7.65
2019-04-20T11:13:35.270Z,14.93
2019-04-20T11:16:08.597Z,6.78
2019-04-20T11:18:41.604Z,4.78
2019-04-20T11:21:15.468Z,5.10
2019-04-20T11:23:49.928Z,2.52
2019-04-20T11:26:24.364Z,4.65
2019-04-20T11:28:57.982Z,4.37
2019-04-20T11:31:37.398Z,7.37
2019-04-20T11:34:05.975Z,8.13
2019-04-20T11:36:39.213Z,6.87
2019-04-20T11:39:14.587Z,4.17
2019-04-20T11:41:47.697Z,8.13
2019-04-20T11:44:20.370Z,2.83
2019-04-20T11:46:52.895Z,9.85
2019-04-20T11:49:25.771Z,6.15
2019-04-20T11:51:59.492Z,4.62
2019-04-20T11:54:32.511Z,3.05
2019-04-20T11:57:05.348Z,5.42
2019-04-20T11:59:39.081Z,8.33
2019-04-20T12:02:25.027Z,7.37
2019-04-20T12:05:10.034Z,7.03
2019-04-20T12:07:35.229Z,8.35
2019-04-20T12:10:14.842Z,3.90
2019-04-20T12:12:48.687Z,3.98
2019-04-20T12:15:18.833Z,12.05
2019-04-20T12:17:51.690Z,8.70
2019-04-20T12:20:24.991Z,4.08
2019-04-20T12:22:58.164Z,9.45
2019-04-20T12:25:33.331Z,6.08
2019-04-20T12:28:05.725Z,3.77
2019-04-20T12:30:39.756Z,7.55
2019-04-20T12:33:13.577Z,7.35
2019-04-20T12:35:47.657Z,5.80
2019-04-20T12:38:21.068Z,2.90
2019-04-20T12:40:53.950Z,9.90
2019-04-20T12:43:27.763Z,5.00
2019-04-20T12:46:02.091Z,2.52
2019-04-20T12:48:35.522Z,3.75
2019-04-20T12:51:08.235Z,7.70
2019-04-20T12:53:40.866Z,4.37
2019-04-20T12:56:14.654Z,3.60
2019-04-20T12:58:47.525Z,3.92
2019-04-20T13:01:21.993Z,10.38
2019-04-20T13:03:55.338Z,11.70
2019-04-20T13:06:29.925Z,4.40
2019-04-20T13:09:05.701Z,4.83
2019-04-20T13:11:50.753Z,10.58
2019-04-20T13:14:50.591Z,5.12
2019-04-20T13:17:24.110Z,7.72
2019-04-20T13:19:57.507Z,10.38
2019-04-20T13:22:30.865Z,5.97
2019-04-20T13:25:05.260Z,6.33
2019-04-20T13:27:38.889Z,6.53
2019-04-20T13:30:13.225Z,13.60
2019-04-20T13:32:47.799Z,8.75
2019-04-20T13:35:20.660Z,8.08
2019-04-20T13:37:54.134Z,3.70
2019-04-20T13:40:27.985Z,6.33
2019-04-20T13:43:01.672Z,3.85
2019-04-20T13:45:37.030Z,5.05
2019-04-20T13:48:11.016Z,7.35
2019-04-20T13:50:44.228Z,8.03
2019-04-20T13:53:17.078Z,2.55
2019-04-20T13:55:49.984Z,13.68
2019-04-20T13:58:40.639Z,6.17
2019-04-20T14:01:18.834Z,22.50
2019-04-20T14:04:10.413Z,6.80
2019-04-20T14:06:44.070Z,11.03
2019-04-20T14:09:17.194Z,2.67
2019-04-20T14:11:49.741Z,2.72
2019-04-20T14:14:23.440Z,10.75
2019-04-20T14:16:56.985Z,7.95
2019-04-20T14:19:29.530Z,5.83
2019-04-20T14:22:02.315Z,11.43
2019-04-20T14:24:35.055Z,8.38
2019-04-20T14:27:08.794Z,12.13
2019-04-20T14:29:43.112Z,13.62
2019-04-20T14:32:16.820Z,7.12
2019-04-20T14:34:49.566Z,9.08
2019-04-20T14:37:22.685Z,9.60
2019-04-20T14:39:56.443Z,8.68
2019-04-20T14:42:37.380Z,3.40
2019-04-20T14:45:06.766Z,5.00
2019-04-20T14:47:39.623Z,4.05
2019-04-20T14:50:14.025Z,5.58
2019-04-20T14:52:47.231Z,10.18
2019-04-20T14:55:21.148Z,12.93
2019-04-20T14:57:55.466Z,16.70
2019-04-20T15:00:51.009Z,9.50
2019-04-20T15:03:35.408Z,10.63
2019-04-20T15:06:07.444Z,5.20
2019-04-20T15:08:40.780Z,8.50
2019-04-20T15:11:14.789Z,9.08
2019-04-20T15:13:47.225Z,7.83
2019-04-20T15:16:20.339Z,7.55
2019-04-20T15:18:56.460Z,5.30
2019-04-20T15:21:31.484Z,5.58
2019-04-20T15:24:05.501Z,15.03
2019-04-20T15:26:38.690Z,22.30
2019-04-20T15:29:12.511Z,14.50
2019-04-20T15:31:45.975Z,9.33
2019-04-20T15:34:19.177Z,13.93
2019-04-20T15:36:52.033Z,4.60
2019-04-20T15:39:25.280Z,10.70
2019-04-20T15:41:58.886Z,12.43
2019-04-20T15:44:31.648Z,20.40
2019-04-20T15:47:04.254Z,8.53
2019-04-20T15:49:38.023Z,11.10
2019-04-20T15:52:12.425Z,17.07
2019-04-20T15:54:45.567Z,11.83
2019-04-20T15:57:23.293Z,8.08
2019-04-20T15:59:52.755Z,19.45
2019-04-20T16:02:36.356Z,10.28
2019-04-20T16:05:24.396Z,7.78
2019-04-20T16:08:01.956Z,6.65
2019-04-20T16:10:32.903Z,10.60
2019-04-20T16:13:18.219Z,12.03
2019-04-20T16:15:40.021Z,17.55
2019-04-20T16:18:13.469Z,13.72
2019-04-20T16:20:56.603Z,8.00
2019-04-20T16:23:22.743Z,9.60
2019-04-20T16:25:57.637Z,7.33
2019-04-20T16:28:31.933Z,6.92
2019-04-20T16:31:08.031Z,9.23
2019-04-20T16:33:39.628Z,8.18
2019-04-20T16:36:12.429Z,5.28
2019-04-20T16:38:45.610Z,9.40
2019-04-20T16:41:18.596Z,14.87
2019-04-20T16:43:51.693Z,21.05
2019-04-20T16:46:25.692Z,21.60
2019-04-20T16:48:59.038Z,8.15
2019-04-20T16:51:31.765Z,7.62
2019-04-20T16:54:05.684Z,12.68
2019-04-20T16:56:39.890Z,10.05
2019-04-20T16:59:14.215Z,13.65
2019-04-20T17:01:48.512Z,7.28
2019-04-20T17:04:24.017Z,6.40
2019-04-20T17:07:14.269Z,5.15
2019-04-20T17:09:49.672Z,13.43
2019-04-20T17:12:23.758Z,12.65
2019-04-20T17:14:57.796Z,10.03
2019-04-20T17:17:31.505Z,13.95
2019-04-20T17:20:07.215Z,12.53
2019-04-20T17:22:40.359Z,17.25
2019-04-20T17:25:16.315Z,26.33
2019-04-20T17:27:49.167Z,16.23
2019-04-20T17:30:25.544Z,26.52
2019-04-20T17:32:59.978Z,43.85
2019-04-20T17:35:43.507Z,51.28
2019-04-20T17:38:08.851Z,34.70
2019-04-20T17:41:01.539Z,44.67
2019-04-20T17:43:25.215Z,82.62
2019-04-20T17:46:02.212Z,43.38
2019-04-20T17:48:37.172Z,26.48
2019-04-20T17:51:25.418Z,15.93
2019-04-20T17:53:44.962Z,20.72
2019-04-20T17:56:12.003Z,11.78
2019-04-20T17:58:46.092Z,8.75
2019-04-20T18:01:36.060Z,16.27
2019-04-20T18:04:29.663Z,26.25
2019-04-20T18:06:47.871Z,38.17
2019-04-20T18:09:34.409Z,44.43
2019-04-20T18:11:49.975Z,48.33
2019-04-20T18:14:42.103Z,78.60
2019-04-20T18:17:10.444Z,56.43
2019-04-20T18:19:34.711Z,67.50
2019-04-20T18:22:12.298Z,67.40
2019-04-20T18:25:09.161Z,66.60
2019-04-20T18:27:38.350Z,73.57
2019-04-20T18:30:11.932Z,57.13
2019-04-20T18:32:33.701Z,73.83
2019-04-20T18:35:10.393Z,112.77
2019-04-20T18:37:44.189Z,120.80
2019-04-20T18:40:28.977Z,73.40
2019-04-20T18:43:03.959Z,55.17
2019-04-20T18:45:42.390Z,79.90
2019-04-20T18:48:16.030Z,75.57
2019-04-20T18:50:41.872Z,92.30
2019-04-20T18:53:16.657Z,97.63
2019-04-20T18:55:49.576Z,95.63
2019-04-20T18:58:20.388Z,123.07
2019-04-20T19:00:54.182Z,109.23
2019-04-20T19:03:33.725Z,101.23
2019-04-20T19:06:02.201Z,90.40
2019-04-20T19:08:40.507Z,79.70
2019-04-20T19:11:14.368Z,79.13
2019-04-20T19:13:47.760Z,76.57
2019-04-20T19:16:34.773Z,105.93
2019-04-20T19:19:17.905Z,107.40
2019-04-20T19:21:40.277Z,99.87
2019-04-20T19:24:16.290Z,98.17
2019-04-20T19:26:51.530Z,116.43
2019-04-20T19:29:31.300Z,101.87
2019-04-20T19:32:11.552Z,105.60
2019-04-20T19:34:45.412Z,95.00
2019-04-20T19:37:15.900Z,84.83
2019-04-20T19:39:53.258Z,80.30
2019-04-20T19:42:31.806Z,54.87
2019-04-20T19:45:02.019Z,64.07
2019-04-20T19:47:42.931Z,40.57
2019-04-20T19:50:31.308Z,30.33
2019-04-20T19:53:05.759Z,36.33
2019-04-20T19:55:25.853Z,38.87
2019-04-20T19:57:59.375Z,28.57
2019-04-20T20:00:24.873Z,27.67
2019-04-20T20:02:57.731Z,44.80
2019-04-20T20:05:37.435Z,28.93
2019-04-20T20:08:12.812Z,35.63
2019-04-20T20:10:43.744Z,40.17
2019-04-20T20:13:14.977Z,30.83
2019-04-20T20:15:52.589Z,35.50
2019-04-20T20:18:35.355Z,33.47
2019-04-20T20:21:12.379Z,145.00
2019-04-20T20:23:32.165Z,43.70
2019-04-20T20:26:07.184Z,28.87
2019-04-20T20:28:45.472Z,25.67
2019-04-20T20:31:24.557Z,28.00
2019-04-20T20:34:03.042Z,32.73
2019-04-20T20:36:28.939Z,26.50
2019-04-20T20:39:04.506Z,27.87
2019-04-20T20:41:44.939Z,24.57
2019-04-20T20:44:21.207Z,32.30
2019-04-20T20:46:55.337Z,34.07
2019-04-20T20:49:33.172Z,29.10
2019-04-20T20:52:09.792Z,26.83
2019-04-20T20:54:40.412Z,32.07
2019-04-20T20:57:06.877Z,24.97
2019-04-20T20:59:42.982Z,38.43
2019-04-20T21:02:15.845Z,35.60
2019-04-20T21:04:42.160Z,127.87
2019-04-20T21:07:16.337Z,268.50
2019-04-20T21:09:50.409Z,46.57
2019-04-20T21:12:24.899Z,51.03
2019-04-20T21:15:00.279Z,28.37
2019-04-20T21:17:41.727Z,46.00
2019-04-20T21:20:27.591Z,29.23
2019-04-20T21:23:03.875Z,31.00
2019-04-20T21:25:33.470Z,118.33
2019-04-20T21:28:00.616Z,128.27
2019-04-20T21:30:41.152Z,96.93
2019-04-20T21:33:09.432Z,95.27
2019-04-20T21:35:47.044Z,78.07
2019-04-20T21:38:18.542Z,53.10
2019-04-20T21:41:02.129Z,65.40
2019-04-20T21:43:29.939Z,45.63
2019-04-20T21:46:04.586Z,68.17
2019-04-20T21:48:51.821Z,61.00
2019-04-20T21:51:25.732Z,43.53
2019-04-20T21:53:44.164Z,129.43
2019-04-20T21:56:17.726Z,86.57
2019-04-20T21:58:56.577Z,41.77
2019-04-20T22:01:32.350Z,38.87
2019-04-20T22:04:00.496Z,30.13
2019-04-20T22:06:34.259Z,37.03
2019-04-20T22:09:12.600Z,41.83
2019-04-20T22:11:47.477Z,32.77
2019-04-20T22:14:24.272Z,36.33
2019-04-20T22:16:56.828Z,39.37
2019-04-20T22:19:38.756Z,31.30
2019-04-20T22:22:15.139Z,29.13
2019-04-20T22:24:53.921Z,36.70
2019-04-20T22:27:19.739Z,34.93
2019-04-20T22:29:46.540Z,29.60
2019-04-20T22:32:21.855Z,35.07
2019-04-20T22:34:59.882Z,32.03
2019-04-20T22:37:30.496Z,32.50
2019-04-20T22:40:05.194Z,30.30
2019-04-20T22:42:46.538Z,44.07
2019-04-20T22:45:15.473Z,30.43
2019-04-20T22:47:48.175Z,36.77
2019-04-20T22:50:33.971Z,38.47
2019-04-20T22:53:12.359Z,50.27
2019-04-20T22:55:54.915Z,38.83
2019-04-20T22:58:19.437Z,44.13
2019-04-20T23:00:49.065Z,53.43
2019-04-20T23:03:14.606Z,59.33
2019-04-20T23:05:48.912Z,64.67
2019-04-20T23:08:22.414Z,42.80
2019-04-20T23:10:55.629Z,35.80
2019-04-20T23:13:35.121Z,45.00
2019-04-20T23:16:04.437Z,40.90
2019-04-20T23:18:38.230Z,33.47
2019-04-20T23:21:14.379Z,35.20
2019-04-20T23:23:45.712Z,36.13
2019-04-20T23:26:25.550Z,30.93
2019-04-20T23:28:57.080Z,31.60
2019-04-20T23:31:29.079Z,59.73
2019-04-20T23:34:12.378Z,121.33
2019-04-20T23:36:41.729Z,42.53
2019-04-20T23:39:12.865Z,40.50
2019-04-20T23:41:53.727Z,34.53
2019-04-20T23:44:23.115Z,36.50
2019-04-20T23:47:09.747Z,30.80
2019-04-20T23:49:54.145Z,29.03
2019-04-20T23:52:39.019Z,47.93
2019-04-20T23:54:53.609Z,98.10
2019-04-20T23:57:19.825Z,44.07
2019-04-20T23:59:53.781Z,51.23
